createdAt,value
2018-03-06T00:01:43.520Z,18.53
2018-03-06T00:04:11.094Z,16.63
2018-03-06T00:06:38.646Z,18.17
2018-03-06T00:09:06.221Z,20.20
2018-03-06T00:11:33.775Z,14.20
2018-03-06T00:14:01.341Z,17.13
2018-03-06T00:16:28.894Z,14.10
2018-03-06T00:18:56.470Z,16.70
2018-03-06T00:21:24.023Z,15.43
2018-03-06T00:23:51.599Z,18.10
2018-03-06T00:26:19.926Z,20.70
2018-03-06T00:28:47.509Z,16.67
2018-03-06T00:31:15.084Z,16.07
2018-03-06T00:33:42.656Z,19.90
2018-03-06T00:36:10.210Z,17.13
2018-03-06T00:38:37.842Z,16.90
2018-03-06T00:41:05.378Z,17.37
2018-03-06T00:43:32.960Z,15.70
2018-03-06T00:46:00.506Z,20.10
2018-03-06T00:48:28.077Z,17.50
2018-03-06T00:50:55.633Z,19.87
2018-03-06T00:53:23.201Z,17.47
2018-03-06T00:55:50.746Z,18.63
2018-03-06T00:58:18.298Z,20.27
2018-03-06T01:00:45.878Z,19.50
2018-03-06T01:03:13.422Z,21.40
2018-03-06T01:05:41.000Z,22.87
2018-03-06T01:08:08.546Z,18.17
2018-03-06T01:10:36.127Z,21.33
2018-03-06T01:13:03.669Z,22.10
2018-03-06T01:15:31.240Z,21.00
2018-03-06T01:17:58.792Z,19.07
2018-03-06T01:20:26.425Z,22.97
2018-03-06T01:22:54.739Z,19.00
2018-03-06T01:25:22.318Z,24.23
2018-03-06T01:27:49.865Z,22.83
2018-03-06T01:30:17.436Z,23.67
2018-03-06T01:32:44.984Z,16.73
2018-03-06T01:35:12.553Z,22.80
2018-03-06T01:37:40.106Z,20.40
2018-03-06T01:40:07.686Z,20.67
2018-03-06T01:42:35.235Z,18.77
2018-03-06T01:45:02.809Z,23.07
2018-03-06T01:47:31.134Z,20.70
2018-03-06T01:49:58.706Z,23.33
2018-03-06T01:52:26.262Z,24.73
2018-03-06T01:54:53.829Z,20.80
2018-03-06T01:57:21.382Z,22.93
2018-03-06T01:59:48.952Z,21.87
2018-03-06T02:02:16.498Z,19.70
2018-03-06T02:04:44.068Z,23.13
2018-03-06T02:07:11.624Z,19.50
2018-03-06T02:09:39.197Z,21.83
2018-03-06T02:12:06.754Z,20.40
2018-03-06T02:14:34.393Z,19.27
2018-03-06T02:17:01.881Z,21.83
2018-03-06T02:19:29.457Z,19.30
2018-03-06T02:21:57.001Z,21.60
2018-03-06T02:24:24.563Z,24.20
2018-03-06T02:26:52.866Z,24.70
2018-03-06T02:29:21.207Z,22.90
2018-03-06T02:31:48.753Z,21.27
2018-03-06T02:34:16.339Z,21.97
2018-03-06T02:36:43.891Z,23.30
2018-03-06T02:39:11.459Z,18.13
2018-03-06T02:41:39.010Z,20.87
2018-03-06T02:44:06.586Z,26.37
2018-03-06T02:46:34.142Z,24.33
2018-03-06T02:49:01.717Z,25.80
2018-03-06T02:51:29.355Z,19.43
2018-03-06T02:53:56.930Z,24.43
2018-03-06T02:56:24.490Z,20.80
2018-03-06T02:58:52.062Z,27.73
2018-03-06T03:01:19.611Z,23.73
2018-03-06T03:03:47.167Z,24.20
2018-03-06T03:06:14.740Z,25.50
2018-03-06T03:08:42.288Z,28.83
2018-03-06T03:11:09.855Z,29.43
2018-03-06T03:13:37.411Z,24.83
2018-03-06T03:16:04.978Z,24.90
2018-03-06T03:18:32.526Z,27.73
2018-03-06T03:21:00.093Z,27.50
2018-03-06T03:23:27.647Z,23.57
2018-03-06T03:25:55.221Z,29.27
2018-03-06T03:28:22.769Z,25.17
2018-03-06T03:30:51.134Z,26.30
2018-03-06T03:33:18.679Z,27.47
2018-03-06T03:35:46.251Z,27.30
2018-03-06T03:38:13.799Z,25.60
2018-03-06T03:40:41.388Z,28.13
2018-03-06T03:43:08.940Z,24.33
2018-03-06T03:45:36.619Z,24.90
2018-03-06T03:48:04.166Z,28.87
2018-03-06T03:53:05.679Z,29.67
2018-03-06T03:55:33.264Z,28.07
2018-03-06T03:58:00.822Z,27.73
2018-03-06T04:00:28.400Z,28.23
2018-03-06T04:02:55.942Z,24.30
2018-03-06T04:05:23.541Z,28.40
2018-03-06T04:07:51.097Z,28.20
2018-03-06T04:10:18.662Z,29.83
2018-03-06T04:12:46.214Z,32.60
2018-03-06T04:15:13.790Z,29.00
2018-03-06T04:17:41.498Z,30.97
2018-03-06T04:20:09.066Z,31.07
2018-03-06T04:22:36.624Z,26.27
2018-03-06T04:25:04.194Z,28.00
2018-03-06T04:27:31.746Z,33.10
2018-03-06T04:29:59.329Z,28.30
2018-03-06T04:32:26.874Z,28.97
2018-03-06T04:34:54.443Z,29.00
2018-03-06T04:37:22.000Z,30.83
2018-03-06T04:39:49.575Z,33.50
2018-03-06T04:42:17.127Z,32.43
2018-03-06T04:44:44.707Z,34.40
2018-03-06T04:47:12.330Z,31.60
2018-03-06T04:49:39.902Z,32.80
2018-03-06T04:52:07.446Z,32.97
2018-03-06T04:54:35.018Z,28.47
2018-03-06T04:57:02.591Z,36.10
2018-03-06T04:59:30.158Z,39.40
2018-03-06T05:01:57.705Z,32.57
2018-03-06T05:04:25.295Z,30.60
2018-03-06T05:06:52.845Z,33.27
2018-03-06T05:09:20.421Z,32.83
2018-03-06T05:11:48.776Z,28.20
2018-03-06T05:14:17.014Z,31.17
2018-03-06T05:16:44.631Z,35.60
2018-03-06T05:19:12.178Z,31.03
2018-03-06T05:21:39.756Z,33.87
2018-03-06T05:24:07.323Z,32.07
2018-03-06T05:26:35.723Z,40.10
2018-03-06T05:29:03.360Z,35.07
2018-03-06T05:31:30.962Z,37.50
2018-03-06T05:33:58.509Z,35.20
2018-03-06T05:36:26.091Z,31.20
2018-03-06T05:38:53.637Z,28.50
2018-03-06T05:41:21.206Z,31.93
2018-03-06T05:43:48.750Z,38.13
2018-03-06T05:46:16.452Z,31.83
2018-03-06T05:48:43.997Z,33.57
2018-03-06T05:51:11.574Z,31.57
2018-03-06T05:53:39.234Z,33.90
2018-03-06T05:56:06.814Z,33.90
2018-03-06T05:58:34.378Z,34.57
2018-03-06T06:01:01.959Z,27.93
2018-03-06T06:03:30.266Z,38.40
2018-03-06T06:05:57.834Z,36.87
2018-03-06T06:08:25.390Z,39.00
2018-03-06T06:10:52.971Z,33.20
2018-03-06T06:13:20.523Z,35.80
2018-03-06T06:15:48.077Z,34.30
2018-03-06T06:18:15.607Z,30.77
2018-03-06T06:20:43.935Z,32.93
2018-03-06T06:23:11.468Z,35.27
2018-03-06T06:25:39.031Z,36.37
2018-03-06T06:28:06.558Z,34.07
2018-03-06T06:30:34.114Z,34.20
2018-03-06T06:33:02.429Z,40.77
2018-03-06T06:57:16.451Z,43.23
2018-03-06T06:59:44.002Z,54.77
2018-03-06T07:02:11.560Z,50.10
2018-03-06T07:04:39.090Z,52.47
2018-03-06T07:07:06.646Z,46.67
2018-03-06T07:09:34.942Z,50.97
2018-03-06T07:12:02.498Z,39.47
2018-03-06T07:14:30.025Z,40.27
2018-03-06T07:16:58.355Z,41.10
2018-03-06T07:19:25.891Z,39.57
2018-03-06T07:21:53.447Z,45.03
2018-03-06T07:24:20.983Z,46.20
2018-03-06T07:26:49.306Z,44.57
2018-03-06T07:29:16.845Z,42.27
2018-03-06T07:31:44.407Z,46.40
2018-03-06T07:34:11.939Z,44.73
2018-03-06T07:36:40.263Z,45.70
2018-03-06T07:39:07.803Z,47.60
2018-03-06T07:41:35.370Z,49.77
2018-03-06T07:44:02.899Z,46.03
2018-03-06T07:46:31.223Z,42.80
2018-03-06T07:48:58.784Z,40.87
2018-03-06T07:51:26.326Z,44.93
2018-03-06T07:53:53.881Z,42.13
2018-03-06T07:56:24.103Z,39.37
2018-03-06T07:58:51.638Z,49.90
2018-03-06T08:01:19.965Z,45.90
2018-03-06T08:03:47.506Z,45.33
2018-03-06T08:06:15.063Z,47.30
2018-03-06T08:08:42.599Z,44.67
2018-03-06T08:11:10.918Z,45.27
2018-03-06T08:13:38.453Z,49.87
2018-03-06T08:16:06.013Z,47.33
2018-03-06T08:18:33.547Z,41.87
2018-03-06T08:21:01.874Z,48.47
2018-03-06T08:23:29.407Z,43.70
2018-03-06T08:25:56.970Z,47.97
2018-03-06T08:28:24.499Z,45.97
2018-03-06T08:30:52.061Z,45.33
2018-03-06T08:33:19.594Z,42.00
2018-03-06T08:35:47.910Z,49.43
2018-03-06T08:38:16.206Z,45.53
2018-03-06T08:40:43.767Z,47.97
2018-03-06T08:43:11.290Z,47.97
2018-03-06T08:45:38.854Z,47.73
2018-03-06T08:48:06.382Z,50.80
2018-03-06T08:50:33.931Z,44.23
2018-03-06T08:53:01.466Z,54.57
2018-03-06T08:55:29.029Z,45.33
2018-03-06T08:57:56.579Z,42.10
2018-03-06T09:00:24.112Z,46.10
2018-03-06T09:02:51.676Z,50.37
2018-03-06T09:05:19.975Z,43.40
2018-03-06T09:07:47.542Z,47.93
2018-03-06T09:10:15.075Z,49.40
2018-03-06T09:12:43.396Z,50.83
2018-03-06T09:15:10.938Z,48.43
2018-03-06T09:17:38.498Z,52.67
2018-03-06T09:20:06.027Z,52.70
2018-03-06T09:22:33.583Z,47.00
2018-03-06T09:25:01.887Z,49.90
2018-03-06T09:27:29.438Z,53.37
2018-03-06T09:29:57.735Z,51.10
2018-03-06T09:32:25.295Z,59.97
2018-03-06T09:34:52.830Z,58.30
2018-03-06T09:37:21.157Z,49.50
2018-03-06T09:39:48.694Z,55.30
2018-03-06T09:42:16.262Z,52.37
2018-03-06T09:44:43.804Z,52.73
2018-03-06T09:47:11.506Z,58.40
2018-03-06T09:49:39.041Z,53.60
2018-03-06T09:52:06.627Z,54.80
2018-03-06T09:54:34.162Z,51.30
2018-03-06T09:57:01.714Z,50.90
2018-03-06T09:59:29.250Z,55.13
2018-03-06T10:01:57.573Z,54.50
2018-03-06T10:04:25.109Z,54.60
2018-03-06T10:06:52.667Z,57.23
2018-03-06T10:09:20.203Z,56.50
2018-03-06T10:11:48.531Z,65.87
2018-03-06T10:14:16.068Z,59.20
2018-03-06T10:16:43.627Z,60.83
2018-03-06T10:19:11.158Z,56.50
2018-03-06T10:21:39.478Z,62.67
2018-03-06T10:24:07.011Z,58.93
2018-03-06T10:26:34.580Z,62.43
2018-03-06T10:29:02.119Z,66.23
2018-03-06T10:31:30.463Z,60.40
2018-03-06T10:33:58.036Z,59.63
2018-03-06T10:36:25.601Z,63.40
2018-03-06T10:38:53.138Z,56.80
2018-03-06T10:41:20.695Z,53.13
2018-03-06T10:43:48.228Z,59.43
2018-03-06T10:46:15.796Z,54.00
2018-03-06T10:48:43.327Z,58.00
2018-03-06T10:51:10.886Z,57.33
2018-03-06T10:53:38.423Z,57.63
2018-03-06T10:56:05.956Z,54.27
2018-03-06T10:58:33.526Z,51.53
2018-03-06T11:01:02.888Z,47.53
2018-03-06T11:03:30.443Z,47.87
2018-03-06T11:05:57.970Z,49.90
2018-03-06T11:08:26.302Z,43.77
2018-03-06T11:10:53.838Z,47.43
2018-03-06T11:13:21.390Z,44.50
2018-03-06T11:15:48.938Z,55.20
2018-03-06T11:18:17.264Z,45.33
2018-03-06T11:20:45.565Z,47.30
2018-03-06T11:23:13.118Z,40.50
2018-03-06T11:25:40.650Z,44.47
2018-03-06T11:28:08.202Z,51.93
2018-03-06T11:30:35.748Z,54.90
2018-03-06T11:33:03.302Z,40.90
2018-03-06T11:35:30.827Z,43.00
2018-03-06T11:37:58.377Z,47.30
2018-03-06T11:40:25.913Z,43.00
2018-03-06T11:42:53.470Z,49.93
2018-03-06T11:45:21.001Z,36.77
2018-03-06T11:47:48.558Z,46.17
2018-03-06T11:50:16.093Z,40.60
2018-03-06T11:52:43.646Z,39.27
2018-03-06T11:55:11.179Z,34.30
2018-03-06T11:57:38.734Z,36.03
2018-03-06T12:00:06.273Z,36.37
2018-03-06T12:02:33.837Z,40.40
2018-03-06T12:05:01.362Z,38.80
2018-03-06T12:07:29.686Z,37.80
2018-03-06T12:09:57.211Z,39.13
2018-03-06T12:12:24.767Z,33.70
2018-03-06T12:14:53.053Z,35.90
2018-03-06T12:17:20.611Z,41.67
2018-03-06T12:19:48.147Z,33.73
2018-03-06T12:22:16.466Z,37.23
2018-03-06T12:24:43.990Z,38.97
2018-03-06T12:27:12.318Z,37.13
2018-03-06T12:29:39.841Z,42.53
2018-03-06T12:32:07.397Z,40.97
2018-03-06T12:34:34.933Z,37.23
2018-03-06T12:37:02.491Z,41.40
2018-03-06T12:39:30.017Z,37.93
2018-03-06T12:41:57.566Z,37.27
2018-03-06T12:44:25.094Z,39.70
2018-03-06T12:46:52.650Z,41.23
2018-03-06T12:49:20.965Z,37.53
2018-03-06T12:51:48.523Z,42.17
2018-03-06T12:54:16.055Z,41.73
2018-03-06T12:56:43.584Z,44.33
2018-03-06T12:59:11.909Z,38.20
2018-03-06T13:01:39.438Z,40.93
2018-03-06T13:04:07.759Z,40.53
2018-03-06T13:06:35.293Z,43.70
2018-03-06T13:09:02.846Z,35.13
2018-03-06T13:11:30.378Z,37.53
2018-03-06T13:13:57.931Z,32.97
2018-03-06T13:16:25.463Z,35.57
2018-03-06T13:18:53.014Z,29.33
2018-03-06T13:21:20.539Z,28.20
2018-03-06T13:23:48.094Z,27.93
2018-03-06T13:26:15.638Z,34.87
2018-03-06T13:28:43.964Z,33.83
2018-03-06T13:31:11.493Z,33.40
2018-03-06T13:33:39.050Z,38.87
2018-03-06T13:36:07.350Z,33.07
2018-03-06T13:38:34.907Z,33.60
2018-03-06T13:41:02.432Z,37.77
2018-03-06T13:43:30.756Z,27.23
2018-03-06T13:45:58.293Z,27.10
2018-03-06T13:48:25.843Z,28.50
2018-03-06T13:50:54.139Z,27.67
2018-03-06T13:53:21.694Z,24.17
2018-03-06T13:55:49.234Z,27.10
2018-03-06T13:58:17.559Z,23.47
2018-03-06T14:00:45.099Z,25.47
2018-03-06T14:03:12.658Z,34.27
2018-03-06T14:05:40.210Z,28.13
2018-03-06T14:08:07.770Z,32.97
2018-03-06T14:10:35.323Z,31.10
2018-03-06T14:13:02.875Z,38.27
2018-03-06T14:15:31.169Z,34.67
2018-03-06T14:17:58.746Z,37.47
2018-03-06T14:20:26.274Z,30.53
2018-03-06T14:22:54.602Z,40.23
2018-03-06T14:25:22.143Z,42.53
2018-03-06T14:27:49.707Z,36.77
2018-03-06T14:30:17.235Z,34.37
2018-03-06T14:32:44.801Z,34.00
2018-03-06T14:35:12.347Z,31.53
2018-03-06T14:37:40.690Z,32.17
2018-03-06T14:40:08.236Z,33.87
2018-03-06T14:42:35.791Z,38.77
2018-03-06T14:45:03.322Z,36.30
2018-03-06T14:47:30.874Z,34.63
2018-03-06T14:49:58.411Z,31.77
2018-03-06T14:52:26.735Z,30.80
2018-03-06T14:54:54.266Z,33.93
2018-03-06T14:57:21.841Z,37.77
2018-03-06T14:59:49.374Z,35.07
2018-03-06T15:02:17.723Z,38.13
2018-03-06T15:04:45.258Z,28.37
2018-03-06T15:07:12.786Z,27.50
2018-03-06T15:09:40.345Z,28.47
2018-03-06T15:12:07.882Z,31.33
2018-03-06T15:14:35.450Z,29.77
2018-03-06T15:17:03.752Z,37.30
2018-03-06T15:19:31.348Z,28.77
2018-03-06T15:21:58.849Z,30.40
2018-03-06T15:24:27.182Z,30.30
2018-03-06T15:26:54.716Z,29.60
2018-03-06T15:29:22.274Z,30.70
2018-03-06T15:31:49.810Z,34.93
2018-03-06T15:34:18.151Z,31.60
2018-03-06T15:36:45.682Z,34.80
2018-03-06T15:39:13.241Z,32.50
2018-03-06T15:41:40.779Z,29.60
2018-03-06T15:44:08.346Z,26.90
2018-03-06T15:46:35.883Z,29.37
2018-03-06T15:49:04.214Z,26.20
2018-03-06T15:51:31.746Z,26.73
2018-03-06T15:53:59.303Z,25.70
2018-03-06T15:56:26.840Z,30.90
2018-03-06T15:58:55.169Z,23.10
2018-03-06T16:01:22.711Z,28.67
2018-03-06T16:03:50.277Z,24.40
2018-03-06T16:06:17.819Z,25.77
2018-03-06T16:08:45.370Z,26.27
2018-03-06T16:11:12.915Z,25.57
2018-03-06T16:13:41.254Z,27.30
2018-03-06T16:16:08.783Z,23.00
2018-03-06T16:18:36.346Z,25.37
2018-03-06T16:21:03.899Z,26.00
2018-03-06T16:23:31.459Z,24.70
2018-03-06T16:25:58.986Z,28.17
2018-03-06T16:28:27.310Z,23.57
2018-03-06T16:30:54.850Z,22.13
2018-03-06T16:33:22.405Z,25.53
2018-03-06T16:35:49.960Z,23.63
2018-03-06T16:38:18.288Z,22.53
2018-03-06T16:40:45.827Z,28.47
2018-03-06T16:43:13.384Z,22.53
2018-03-06T16:45:40.921Z,24.53
2018-03-06T16:48:08.478Z,23.03
2018-03-06T16:50:36.012Z,22.67
2018-03-06T16:53:03.583Z,22.57
2018-03-06T16:55:31.886Z,24.37
2018-03-06T16:57:59.446Z,25.53
2018-03-06T17:00:26.978Z,24.23
2018-03-06T17:02:55.306Z,23.10
2018-03-06T17:05:22.859Z,23.60
2018-03-06T17:07:50.395Z,23.00
2018-03-06T17:10:18.012Z,22.07
2018-03-06T17:12:45.543Z,21.83
2018-03-06T17:15:13.107Z,22.03
2018-03-06T17:17:40.642Z,26.30
2018-03-06T17:20:08.320Z,18.17
2018-03-06T17:22:35.935Z,23.60
2018-03-06T17:25:04.287Z,19.53
2018-03-06T17:27:31.835Z,18.90
2018-03-06T17:29:59.394Z,19.40
2018-03-06T17:32:26.922Z,16.07
2018-03-06T17:34:54.478Z,15.40
2018-03-06T17:37:22.098Z,16.77
2018-03-06T17:39:49.707Z,16.77
2018-03-06T17:42:17.259Z,21.30
2018-03-06T17:44:44.823Z,17.20
2018-03-06T17:47:12.347Z,19.67
2018-03-06T17:49:39.910Z,20.23
2018-03-06T17:52:07.508Z,19.73
2018-03-06T17:54:35.124Z,20.13
2018-03-06T17:57:03.439Z,18.00
2018-03-06T17:59:31.227Z,19.23
2018-03-06T18:01:58.831Z,18.60
2018-03-06T18:04:27.366Z,24.40
2018-03-06T18:06:54.912Z,35.83
2018-03-06T18:09:22.478Z,49.53
2018-03-06T18:11:50.013Z,21.93
2018-03-06T18:14:18.359Z,19.73
2018-03-06T18:16:45.899Z,22.10
2018-03-06T18:19:13.449Z,21.67
2018-03-06T18:21:40.982Z,17.07
2018-03-06T18:24:08.542Z,19.60
2018-03-06T18:26:36.136Z,18.20
2018-03-06T18:29:03.703Z,17.73
2018-03-06T18:31:32.018Z,13.90
2018-03-06T18:34:00.341Z,14.10
2018-03-06T18:36:27.875Z,17.70
2018-03-06T18:38:55.431Z,20.23
2018-03-06T18:41:23.048Z,17.23
2018-03-06T18:43:51.399Z,16.73
2018-03-06T18:46:18.937Z,15.60
2018-03-06T18:48:46.529Z,17.40
2018-03-06T18:51:14.078Z,15.50
2018-03-06T18:53:41.678Z,15.97
2018-03-06T18:56:09.238Z,16.27
2018-03-06T18:58:36.801Z,16.30
2018-03-06T19:04:34.940Z,12.80
2018-03-06T19:07:07.978Z,12.73
2018-03-06T19:09:36.330Z,12.47
2018-03-06T19:12:03.868Z,15.33
2018-03-06T19:14:31.402Z,12.37
2018-03-06T19:16:59.711Z,14.10
2018-03-06T19:19:27.242Z,13.00
2018-03-06T19:21:55.567Z,14.33
2018-03-06T19:24:23.106Z,15.57
2018-03-06T19:26:50.670Z,14.40
2018-03-06T19:29:18.201Z,16.73
2018-03-06T19:31:46.518Z,16.63
2018-03-06T19:34:14.056Z,15.80
2018-03-06T19:36:41.609Z,19.13
2018-03-06T19:39:09.158Z,18.43
2018-03-06T19:41:37.482Z,17.67
2018-03-06T19:44:05.026Z,15.63
2018-03-06T19:46:32.573Z,14.33
2018-03-06T19:49:00.103Z,15.13
2018-03-06T19:51:28.434Z,16.27
2018-03-06T19:53:55.966Z,15.30
2018-03-06T19:56:23.500Z,17.47
2018-03-06T19:58:51.840Z,16.57
2018-03-06T20:01:19.381Z,15.23
2018-03-06T20:03:46.962Z,18.93
2018-03-06T20:06:14.498Z,15.93
2018-03-06T20:08:42.056Z,17.70
2018-03-06T20:11:09.590Z,21.87
2018-03-06T20:13:37.914Z,14.07
2018-03-06T20:16:06.215Z,21.00
2018-03-06T20:18:33.786Z,16.23
2018-03-06T20:21:02.086Z,18.30
2018-03-06T20:23:29.746Z,18.57
2018-03-06T20:26:00.102Z,18.50
2018-03-06T20:28:27.661Z,17.83
2018-03-06T20:31:00.795Z,18.37
2018-03-06T20:33:28.354Z,21.30
2018-03-06T20:35:55.886Z,18.67
2018-03-06T20:38:29.193Z,16.53
2018-03-06T20:40:56.731Z,19.67
2018-03-06T20:43:24.291Z,18.37
2018-03-06T20:45:57.422Z,20.20
2018-03-06T20:48:24.982Z,19.40
2018-03-06T20:50:52.519Z,17.77
2018-03-06T20:53:25.667Z,20.27
2018-03-06T20:55:53.196Z,18.33
2018-03-06T20:58:20.758Z,15.87
2018-03-06T21:00:49.062Z,20.17
2018-03-06T21:03:16.633Z,19.33
2018-03-06T21:05:44.171Z,23.37
2018-03-06T21:08:12.495Z,22.33
2018-03-06T21:10:40.031Z,20.30
2018-03-06T21:13:07.599Z,19.10
2018-03-06T21:15:35.124Z,22.17
2018-03-06T21:18:03.421Z,19.90
2018-03-06T21:20:30.984Z,19.77
2018-03-06T21:22:58.510Z,20.30
2018-03-06T21:25:26.840Z,28.57
2018-03-06T21:27:54.374Z,21.23
2018-03-06T21:30:21.932Z,22.67
2018-03-06T21:32:49.462Z,23.33
2018-03-06T21:35:17.052Z,21.27
2018-03-06T21:37:45.359Z,19.83
2018-03-06T21:40:12.942Z,18.13
2018-03-06T21:42:40.487Z,19.07
2018-03-06T21:45:08.046Z,24.23
2018-03-06T21:47:35.578Z,20.07
2018-03-06T21:50:03.114Z,21.07
2018-03-06T21:52:31.439Z,24.40
2018-03-06T21:54:58.962Z,26.43
2018-03-06T21:57:26.523Z,21.40
2018-03-06T21:59:54.051Z,28.23
2018-03-06T22:02:21.603Z,21.33
2018-03-06T22:04:49.139Z,23.93
2018-03-06T22:07:16.691Z,22.03
2018-03-06T22:09:44.224Z,22.50
2018-03-06T22:12:11.781Z,21.30
2018-03-06T22:14:39.342Z,20.27
2018-03-06T22:17:06.903Z,17.83
2018-03-06T22:19:34.440Z,18.97
2018-03-06T22:22:02.761Z,22.27
2018-03-06T22:24:30.315Z,21.60
2018-03-06T22:26:57.847Z,20.37
2018-03-06T22:29:26.166Z,27.57
2018-03-06T22:31:53.710Z,25.67
2018-03-06T22:34:21.261Z,22.07
2018-03-06T22:36:48.794Z,15.10
2018-03-06T22:39:17.111Z,19.97
2018-03-06T22:41:44.647Z,19.83
2018-03-06T22:44:12.207Z,20.83
2018-03-06T22:46:40.503Z,22.37
2018-03-06T22:49:08.054Z,23.50
2018-03-06T22:51:35.584Z,25.53
2018-03-06T22:54:03.907Z,25.40
2018-03-06T22:56:31.443Z,23.87
2018-03-06T22:58:59.006Z,25.60
2018-03-06T23:01:26.530Z,26.00
2018-03-06T23:03:54.078Z,27.60
2018-03-06T23:06:21.618Z,25.57
2018-03-06T23:08:49.158Z,27.40
2018-03-06T23:11:16.732Z,29.80
2018-03-06T23:13:44.302Z,26.97
2018-03-06T23:16:12.619Z,31.47
2018-03-06T23:18:40.985Z,32.33
2018-03-06T23:21:08.539Z,34.40
2018-03-06T23:23:36.070Z,35.17
2018-03-06T23:26:03.618Z,28.40
2018-03-06T23:28:31.154Z,39.80
2018-03-06T23:30:58.709Z,32.43
2018-03-06T23:33:26.254Z,28.40
2018-03-06T23:35:54.595Z,32.20
2018-03-06T23:38:22.126Z,34.70
2018-03-06T23:40:49.678Z,32.83
2018-03-06T23:43:17.204Z,32.37
2018-03-06T23:45:44.758Z,35.37
2018-03-06T23:48:12.298Z,29.93
2018-03-06T23:50:39.872Z,37.83
2018-03-06T23:53:07.404Z,29.37
2018-03-06T23:55:34.958Z,33.53
2018-03-06T23:58:02.478Z,39.10
